Time;durP1;ratioP1;P1;durP2;ratioP2;P2;SDS_P1;SDS_P2;PMS_P1;PMS_P2;Temp;Humidity;BMP_temperature;BMP_pressure;BME280_temperature;BME280_humidity;BME280_pressure;Samples;Min_cycle;Max_cycle;Signal;HPM_P1;HPM_P2
2023/03/27 00:01:24;;;;;;;10.85;2.78;;;;;;;;;;4969206;28;98274;-73
2023/03/27 00:03:52;;;;;;;10.18;1.83;;;;;;;;;;4968642;28;98815;-74
2023/03/27 00:06:19;;;;;;;5.60;1.90;;;;;;;;;;4971428;28;100017;-73
2023/03/27 00:08:49;;;;;;;12.15;2.25;;;;;;;;;;4968920;28;99281;-74
2023/03/27 00:11:16;;;;;;;11.10;2.00;;;;;;;;;;4968940;28;98644;-74
2023/03/27 00:13:43;;;;;;;5.90;1.85;;;;;;;;;;4968203;28;98193;-74
2023/03/27 00:16:17;;;;;;;12.10;2.40;;;;;;;;;;4968647;28;99400;-74
2023/03/27 00:18:44;;;;;;;5.82;1.95;;;;;;;;;;4967396;28;99285;-74
2023/03/27 00:21:11;;;;;;;8.95;2.35;;;;;;;;;;4968903;28;98255;-74
2023/03/27 00:23:37;;;;;;;14.77;2.30;;;;;;;;;;4968295;28;98824;-74
2023/03/27 00:26:04;;;;;;;3.05;1.52;;;;;;;;;;4968613;28;100015;-74
2023/03/27 00:28:30;;;;;;;8.18;2.22;;;;;;;;;;4972483;28;98767;-74
2023/03/27 00:30:57;;;;;;;6.13;1.80;;;;;;;;;;4968828;28;98950;-74
2023/03/27 00:33:24;;;;;;;6.15;1.63;;;;;;;;;;4968032;28;98302;-74
2023/03/27 00:35:51;;;;;;;4.63;1.70;;;;;;;;;;4968327;28;98311;-74
2023/03/27 00:38:18;;;;;;;6.75;1.67;;;;;;;;;;4967419;28;98896;-74
2023/03/27 00:40:45;;;;;;;7.88;1.80;;;;;;;;;;4966426;28;98713;-73
2023/03/27 00:43:21;;;;;;;6.28;1.73;;;;;;;;;;4970823;28;98892;-73
2023/03/27 00:45:49;;;;;;;10.25;2.47;;;;;;;;;;4971749;28;100323;-74
2023/03/27 00:48:17;;;;;;;8.15;1.60;;;;;;;;;;4971358;28;98523;-73
2023/03/27 00:50:45;;;;;;;10.90;2.28;;;;;;;;;;4967955;28;98865;-73
2023/03/27 00:53:16;;;;;;;12.60;2.30;;;;;;;;;;4968617;28;98273;-73
2023/03/27 00:55:45;;;;;;;8.35;2.42;;;;;;;;;;4967621;28;99318;-74
2023/03/27 00:58:15;;;;;;;12.77;1.80;;;;;;;;;;4966958;28;100186;-74
2023/03/27 01:00:41;;;;;;;6.18;1.70;;;;;;;;;;4966236;28;98258;-73
2023/03/27 01:03:08;;;;;;;9.52;1.73;;;;;;;;;;4965386;28;100284;-73
2023/03/27 01:05:35;;;;;;;6.35;1.60;;;;;;;;;;4968283;28;98706;-73
2023/03/27 01:08:02;;;;;;;3.47;1.30;;;;;;;;;;4967315;28;98243;-73
2023/03/27 01:10:39;;;;;;;6.30;1.10;;;;;;;;;;4969733;28;98447;-74
2023/03/27 01:13:22;;;;;;;14.40;1.83;;;;;;;;;;4966597;28;98313;-73
2023/03/27 01:16:10;;;;;;;4.80;1.70;;;;;;;;;;4976842;28;99733;-74
2023/03/27 01:18:57;;;;;;;4.75;1.98;;;;;;;;;;4977268;28;100299;-74
2023/03/27 01:21:26;;;;;;;9.85;2.10;;;;;;;;;;4968622;28;98305;-74
2023/03/27 01:23:56;;;;;;;3.88;1.25;;;;;;;;;;4971299;28;101349;-74
2023/03/27 01:26:37;;;;;;;4.63;2.33;;;;;;;;;;4966474;28;101107;-74
2023/03/27 01:29:24;;;;;;;4.43;1.23;;;;;;;;;;4964037;28;98234;-74
2023/03/27 01:32:17;;;;;;;5.88;1.33;;;;;;;;;;4964810;28;100997;-74
2023/03/27 01:34:52;;;;;;;5.03;1.10;;;;;;;;;;4953747;28;100958;-74
2023/03/27 01:37:40;;;;;;;3.45;1.40;;;;;;;;;;4965922;28;100975;-74
2023/03/27 01:40:16;;;;;;;8.25;1.52;;;;;;;;;;4966381;28;101494;-75
2023/03/27 01:42:46;;;;;;;3.88;1.35;;;;;;;;;;4976297;28;98383;-74
2023/03/27 01:45:43;;;;;;;7.90;1.50;;;;;;;;;;4976019;28;99852;-74
2023/03/27 01:48:13;;;;;;;5.60;1.58;;;;;;;;;;4962179;28;100125;-74
2023/03/27 01:51:15;;;;;;;6.90;1.30;;;;;;;;;;4967019;28;98295;-74
2023/03/27 01:53:43;;;;;;;3.35;1.33;;;;;;;;;;4932887;28;99485;-74
2023/03/27 01:56:16;;;;;;;3.40;1.73;;;;;;;;;;4956256;28;98764;-74
2023/03/27 01:58:45;;;;;;;9.45;1.73;;;;;;;;;;4968220;28;98238;-74
2023/03/27 02:01:15;;;;;;;2.55;1.67;;;;;;;;;;4965679;28;101328;-74
2023/03/27 02:03:47;;;;;;;4.97;1.77;;;;;;;;;;4967861;28;98243;-75
2023/03/27 02:06:19;;;;;;;3.90;1.73;;;;;;;;;;4965524;28;101175;-73
2023/03/27 02:08:56;;;;;;;2.95;1.35;;;;;;;;;;4965833;28;102277;-74
2023/03/27 02:11:25;;;;;;;4.22;1.42;;;;;;;;;;4965464;28;98270;-73
2023/03/27 02:13:56;;;;;;;5.45;1.38;;;;;;;;;;4966925;28;98474;-74
2023/03/27 02:16:27;;;;;;;7.00;1.48;;;;;;;;;;4966423;28;101353;-74
2023/03/27 02:18:56;;;;;;;6.32;1.45;;;;;;;;;;4976246;28;98301;-74
2023/03/27 02:21:23;;;;;;;10.23;1.55;;;;;;;;;;4969514;28;99969;-74
2023/03/27 02:23:51;;;;;;;5.95;1.40;;;;;;;;;;4966083;28;98797;-74
2023/03/27 02:26:18;;;;;;;4.15;1.55;;;;;;;;;;4965484;28;99465;-74
2023/03/27 02:28:50;;;;;;;5.07;1.40;;;;;;;;;;4967532;28;99911;-74
2023/03/27 02:31:24;;;;;;;3.53;1.38;;;;;;;;;;4966950;28;98515;-73
2023/03/27 02:34:18;;;;;;;7.63;1.40;;;;;;;;;;4966297;28;100649;-73
2023/03/27 02:37:14;;;;;;;6.80;1.80;;;;;;;;;;4966378;28;100862;-73
2023/03/27 02:40:12;;;;;;;4.28;1.52;;;;;;;;;;4968034;28;98307;-73
2023/03/27 02:42:52;;;;;;;3.67;1.58;;;;;;;;;;4975749;28;101322;-74
2023/03/27 02:45:35;;;;;;;3.45;1.17;;;;;;;;;;4986434;28;98424;-74
2023/03/27 02:48:24;;;;;;;1.88;1.30;;;;;;;;;;4971004;28;98628;-74
2023/03/27 02:50:53;;;;;;;4.05;1.10;;;;;;;;;;4964156;28;98897;-74
2023/03/27 02:53:22;;;;;;;8.15;1.75;;;;;;;;;;4968831;28;98699;-74
2023/03/27 02:55:51;;;;;;;3.75;1.27;;;;;;;;;;4968391;28;99388;-74
2023/03/27 02:58:29;;;;;;;3.33;1.45;;;;;;;;;;4968466;28;101026;-74
2023/03/27 03:01:02;;;;;;;4.85;1.23;;;;;;;;;;4972128;28;98279;-74
2023/03/27 03:03:57;;;;;;;8.23;2.03;;;;;;;;;;4970122;28;98338;-74
2023/03/27 03:06:35;;;;;;;3.65;1.60;;;;;;;;;;4972098;28;100801;-74
2023/03/27 03:09:05;;;;;;;4.05;1.30;;;;;;;;;;4967753;28;100769;-74
2023/03/27 03:11:32;;;;;;;6.63;1.80;;;;;;;;;;5001451;28;100870;-74
2023/03/27 03:13:59;;;;;;;8.18;1.95;;;;;;;;;;4967589;28;98263;-74
2023/03/27 03:16:26;;;;;;;4.43;1.50;;;;;;;;;;4969125;28;98586;-74
2023/03/27 03:18:52;;;;;;;4.70;1.50;;;;;;;;;;4969655;28;98740;-74
2023/03/27 03:21:19;;;;;;;5.18;1.60;;;;;;;;;;4970355;28;98272;-74
2023/03/27 03:23:45;;;;;;;7.38;1.63;;;;;;;;;;4967811;28;99834;-74
2023/03/27 03:26:25;;;;;;;8.43;1.98;;;;;;;;;;4967546;28;102006;-74
2023/03/27 03:28:52;;;;;;;6.93;2.20;;;;;;;;;;4970633;28;99139;-74
2023/03/27 03:31:41;;;;;;;5.75;1.52;;;;;;;;;;4968214;28;101914;-74
2023/03/27 03:34:10;;;;;;;4.93;1.70;;;;;;;;;;4968023;28;98217;-74
2023/03/27 03:36:36;;;;;;;3.88;2.00;;;;;;;;;;4967290;28;98782;-74
2023/03/27 03:39:04;;;;;;;4.22;1.80;;;;;;;;;;5000011;28;100808;-74
2023/03/27 03:41:31;;;;;;;7.05;1.80;;;;;;;;;;4967450;28;99564;-74
2023/03/27 03:44:00;;;;;;;6.35;2.30;;;;;;;;;;4967290;28;100745;-75
2023/03/27 03:46:26;;;;;;;5.78;1.80;;;;;;;;;;4967525;28;101458;-74
2023/03/27 03:48:53;;;;;;;9.18;1.83;;;;;;;;;;4969107;28;98192;-74
2023/03/27 03:51:19;;;;;;;12.00;2.10;;;;;;;;;;4970478;28;101607;-76
2023/03/27 03:53:46;;;;;;;4.07;1.65;;;;;;;;;;4967026;28;98374;-74
2023/03/27 03:56:12;;;;;;;2.60;1.70;;;;;;;;;;4968389;28;100592;-74
2023/03/27 03:58:39;;;;;;;4.88;1.77;;;;;;;;;;4966817;28;101012;-75
2023/03/27 04:01:05;;;;;;;7.53;2.15;;;;;;;;;;4967228;28;98689;-75
2023/03/27 04:03:38;;;;;;;;;;;;;;;;;;4981469;28;100395;-73
2023/03/27 04:06:06;;;;;;;8.50;2.10;;;;;;;;;;4968129;28;99316;-75
2023/03/27 04:08:33;;;;;;;5.53;1.77;;;;;;;;;;4967515;28;98291;-75
2023/03/27 04:11:03;;;;;;;2.88;1.63;;;;;;;;;;4967806;28;98219;-74
2023/03/27 04:13:45;;;;;;;;;;;;;;;;;;4973113;28;99879;-75
2023/03/27 04:16:24;;;;;;;4.78;1.83;;;;;;;;;;4967528;28;100446;-75
2023/03/27 04:18:53;;;;;;;3.63;1.70;;;;;;;;;;4966593;28;101255;-74
2023/03/27 04:21:25;;;;;;;6.45;2.08;;;;;;;;;;4967493;28;98475;-74
2023/03/27 04:23:52;;;;;;;9.52;1.75;;;;;;;;;;4967481;28;98502;-74
2023/03/27 04:26:28;;;;;;;6.03;2.00;;;;;;;;;;4966130;28;100044;-74
2023/03/27 04:29:13;;;;;;;6.18;1.98;;;;;;;;;;4968719;28;98477;-74
2023/03/27 04:32:01;;;;;;;7.28;1.88;;;;;;;;;;4974180;28;99891;-73
2023/03/27 04:34:39;;;;;;;7.03;1.95;;;;;;;;;;4965553;28;98701;-74
2023/03/27 04:37:30;;;;;;;13.43;2.50;;;;;;;;;;4960202;28;98262;-74
2023/03/27 04:40:09;;;;;;;6.25;2.08;;;;;;;;;;4966167;28;99293;-74
2023/03/27 04:42:42;;;;;;;3.20;1.52;;;;;;;;;;4968508;28;98747;-74
2023/03/27 04:45:11;;;;;;;7.55;2.03;;;;;;;;;;4968202;28;98431;-74
2023/03/27 04:47:39;;;;;;;6.85;1.77;;;;;;;;;;4968847;28;99598;-74
2023/03/27 04:50:15;;;;;;;8.23;1.77;;;;;;;;;;4968987;28;98367;-74
2023/03/27 04:52:42;;;;;;;5.15;1.80;;;;;;;;;;4967156;28;100227;-75
2023/03/27 04:55:11;;;;;;;1.98;1.60;;;;;;;;;;4964577;28;99959;-74
2023/03/27 04:57:40;;;;;;;14.13;1.95;;;;;;;;;;4971160;28;98307;-75
2023/03/27 05:00:14;;;;;;;1.88;1.30;;;;;;;;;;4955042;28;99395;-75
2023/03/27 05:02:44;;;;;;;5.65;1.58;;;;;;;;;;4967734;28;98377;-75
2023/03/27 05:05:15;;;;;;;5.90;1.55;;;;;;;;;;4966487;28;98686;-74
2023/03/27 05:07:46;;;;;;;7.07;1.83;;;;;;;;;;4965737;28;99212;-74
2023/03/27 05:10:17;;;;;;;3.40;1.38;;;;;;;;;;4967056;28;98362;-75
2023/03/27 05:12:48;;;;;;;6.55;1.20;;;;;;;;;;4966645;28;101254;-74
2023/03/27 05:15:16;;;;;;;7.88;1.60;;;;;;;;;;4965664;28;98938;-74
2023/03/27 05:17:45;;;;;;;3.97;1.65;;;;;;;;;;4967923;28;98331;-74
2023/03/27 05:20:15;;;;;;;2.80;1.50;;;;;;;;;;4970835;28;98173;-74
2023/03/27 05:22:42;;;;;;;5.63;1.30;;;;;;;;;;4966994;28;99637;-74
2023/03/27 05:25:35;;;;;;;;;;;;;;;;;;4966261;28;98839;-75
2023/03/27 05:28:04;;;;;;;3.25;1.60;;;;;;;;;;4967230;28;99186;-75
2023/03/27 05:30:33;;;;;;;4.07;1.70;;;;;;;;;;4965847;28;99770;-75
2023/03/27 05:33:29;;;;;;;5.95;1.70;;;;;;;;;;4956679;28;98656;-75
2023/03/27 05:35:56;;;;;;;2.88;1.67;;;;;;;;;;4962275;28;100091;-74
2023/03/27 05:38:25;;;;;;;9.52;2.10;;;;;;;;;;4965342;28;98201;-74
2023/03/27 05:41:20;;;;;;;9.20;2.05;;;;;;;;;;4966615;28;99186;-73
2023/03/27 05:43:49;;;;;;;6.43;1.45;;;;;;;;;;4964476;28;100673;-74
2023/03/27 05:46:18;;;;;;;1.77;1.50;;;;;;;;;;4979925;28;99201;-74
2023/03/27 05:48:52;;;;;;;6.20;1.60;;;;;;;;;;4953180;28;101092;-73
2023/03/27 05:51:19;;;;;;;10.80;1.95;;;;;;;;;;4961593;28;98217;-72
2023/03/27 05:53:46;;;;;;;3.50;1.75;;;;;;;;;;4964448;28;99989;-73
2023/03/27 05:56:21;;;;;;;6.20;1.58;;;;;;;;;;4972014;28;98701;-74
2023/03/27 05:58:53;;;;;;;2.13;1.30;;;;;;;;;;4974556;28;98676;-74
2023/03/27 06:01:21;;;;;;;6.97;1.55;;;;;;;;;;4972568;28;99338;-74
2023/03/27 06:03:54;;;;;;;3.22;1.48;;;;;;;;;;4974987;28;101415;-74
2023/03/27 06:06:34;;;;;;;11.05;1.92;;;;;;;;;;4968183;28;98566;-74
2023/03/27 06:09:02;;;;;;;9.13;3.33;;;;;;;;;;4975824;28;101574;-74
2023/03/27 06:11:29;;;;;;;4.05;1.80;;;;;;;;;;4963230;28;98309;-74
2023/03/27 06:13:56;;;;;;;11.05;2.35;;;;;;;;;;4963479;28;100688;-74
2023/03/27 06:16:37;;;;;;;8.55;2.22;;;;;;;;;;4947976;28;101634;-74
2023/03/27 06:19:33;;;;;;;5.15;1.85;;;;;;;;;;4958142;28;100007;-74
2023/03/27 06:22:00;;;;;;;7.72;2.08;;;;;;;;;;4964256;28;98443;-75
2023/03/27 06:24:26;;;;;;;3.53;1.75;;;;;;;;;;4993382;28;99117;-74
2023/03/27 06:26:53;;;;;;;7.20;2.08;;;;;;;;;;4964297;28;98415;-73
2023/03/27 06:29:20;;;;;;;5.32;2.15;;;;;;;;;;4960572;28;101310;-75
2023/03/27 06:31:49;;;;;;;8.45;1.95;;;;;;;;;;4971947;28;99227;-74
2023/03/27 06:34:27;;;;;;;7.00;2.35;;;;;;;;;;4976983;28;100565;-74
2023/03/27 06:37:09;;;;;;;11.02;2.40;;;;;;;;;;4969350;28;100129;-73
2023/03/27 06:39:38;;;;;;;15.23;2.20;;;;;;;;;;4968361;28;99265;-73
2023/03/27 06:42:05;;;;;;;10.85;2.03;;;;;;;;;;4972967;28;101090;-74
2023/03/27 06:44:34;;;;;;;6.53;1.63;;;;;;;;;;4974867;28;100702;-73
2023/03/27 06:47:37;;;;;;;6.80;2.10;;;;;;;;;;4958434;28;98296;-74
2023/03/27 06:50:23;;;;;;;10.05;2.42;;;;;;;;;;4983293;28;98532;-74
2023/03/27 06:52:51;;;;;;;4.72;2.30;;;;;;;;;;4974475;28;99022;-74
2023/03/27 06:55:37;;;;;;;4.45;2.25;;;;;;;;;;4968055;28;101620;-74
2023/03/27 06:58:05;;;;;;;6.57;2.88;;;;;;;;;;4974387;28;101544;-73
2023/03/27 07:00:34;;;;;;;10.75;2.40;;;;;;;;;;4977576;28;98219;-74
2023/03/27 07:03:20;;;;;;;6.75;2.08;;;;;;;;;;4971842;28;99661;-74
2023/03/27 07:06:02;;;;;;;3.95;2.08;;;;;;;;;;4960484;28;100313;-74
2023/03/27 07:08:47;;;;;;;9.75;2.22;;;;;;;;;;4955360;28;98380;-74
2023/03/27 07:11:15;;;;;;;9.02;1.85;;;;;;;;;;4957142;28;101328;-73
2023/03/27 07:13:49;;;;;;;6.30;2.80;;;;;;;;;;4966457;28;99894;-73
2023/03/27 07:16:23;;;;;;;7.63;2.22;;;;;;;;;;4970641;28;100743;-73
2023/03/27 07:18:50;;;;;;;4.65;1.73;;;;;;;;;;4962962;28;101381;-73
2023/03/27 07:21:16;;;;;;;8.80;1.92;;;;;;;;;;4957883;28;98311;-73
2023/03/27 07:23:44;;;;;;;2.20;1.30;;;;;;;;;;4952976;28;101254;-72
2023/03/27 07:26:14;;;;;;;4.65;1.55;;;;;;;;;;4965422;28;99625;-73
2023/03/27 07:28:59;;;;;;;7.80;1.70;;;;;;;;;;4953224;28;98542;-73
2023/03/27 07:31:26;;;;;;;4.95;1.35;;;;;;;;;;4954891;28;98409;-73
2023/03/27 07:34:14;;;;;;;4.60;1.15;;;;;;;;;;4968846;28;101173;-74
2023/03/27 07:36:59;;;;;;;7.35;1.30;;;;;;;;;;4956805;28;98142;-73
2023/03/27 07:39:26;;;;;;;3.88;1.00;;;;;;;;;;4963741;28;101163;-74
2023/03/27 07:41:54;;;;;;;3.90;1.20;;;;;;;;;;4951194;28;98440;-74
2023/03/27 07:44:32;;;;;;;2.35;1.08;;;;;;;;;;4959855;28;100638;-73
2023/03/27 07:47:02;;;;;;;3.95;1.15;;;;;;;;;;4956455;28;100639;-73
2023/03/27 07:49:30;;;;;;;1.85;1.00;;;;;;;;;;4970443;28;98483;-73
2023/03/27 07:52:09;;;;;;;4.63;1.13;;;;;;;;;;4977405;28;100806;-73
2023/03/27 07:54:46;;;;;;;7.25;1.33;;;;;;;;;;4996795;28;101079;-73
2023/03/27 07:57:14;;;;;;;5.25;1.33;;;;;;;;;;4977224;28;98405;-74
2023/03/27 08:00:10;;;;;;;3.58;1.35;;;;;;;;;;4974791;28;98351;-75
2023/03/27 08:02:44;;;;;;;1.80;1.40;;;;;;;;;;4972094;28;98560;-73
2023/03/27 08:05:12;;;;;;;4.25;1.40;;;;;;;;;;4978390;28;101159;-73
2023/03/27 08:07:44;;;;;;;5.53;1.30;;;;;;;;;;4979329;28;99012;-73
2023/03/27 08:10:14;;;;;;;4.95;1.00;;;;;;;;;;4978182;28;99868;-73
2023/03/27 08:12:55;;;;;;;5.18;1.10;;;;;;;;;;4964322;28;100632;-73
2023/03/27 08:15:23;;;;;;;3.85;1.08;;;;;;;;;;4971757;28;101616;-72
2023/03/27 08:17:53;;;;;;;7.38;1.30;;;;;;;;;;4978805;28;98394;-75
2023/03/27 08:20:23;;;;;;;3.38;1.13;;;;;;;;;;4967946;28;99067;-73
2023/03/27 08:22:50;;;;;;;8.20;1.50;;;;;;;;;;4982669;28;101376;-75
2023/03/27 08:25:31;;;;;;;6.47;1.52;;;;;;;;;;4970505;28;98223;-75
2023/03/27 08:28:01;;;;;;;4.00;1.58;;;;;;;;;;4976567;28;99278;-75
2023/03/27 08:30:29;;;;;;;4.03;1.10;;;;;;;;;;4972077;28;98766;-74
2023/03/27 08:32:56;;;;;;;11.98;1.77;;;;;;;;;;4971815;28;100628;-74
2023/03/27 08:35:23;;;;;;;9.68;1.48;;;;;;;;;;4973238;28;98682;-75
2023/03/27 08:37:51;;;;;;;4.70;1.48;;;;;;;;;;4984488;28;98221;-75
2023/03/27 08:40:36;;;;;;;4.78;1.77;;;;;;;;;;4969064;28;98205;-74
2023/03/27 08:43:32;;;;;;;5.28;1.50;;;;;;;;;;4965201;28;101839;-74
2023/03/27 08:45:58;;;;;;;;;;;;;;;;;;4985707;28;98710;-74
2023/03/27 08:48:29;;;;;;;7.00;1.35;;;;;;;;;;4975082;28;100918;-74
2023/03/27 08:51:02;;;;;;;4.55;1.10;;;;;;;;;;4970558;28;98273;-74
2023/03/27 08:53:41;;;;;;;3.03;1.02;;;;;;;;;;4978198;28;101094;-74
2023/03/27 08:56:11;;;;;;;10.73;1.15;;;;;;;;;;4974784;28;101504;-74
2023/03/27 08:58:40;;;;;;;6.95;1.27;;;;;;;;;;4969709;28;98369;-75
2023/03/27 09:01:40;;;;;;;6.72;1.40;;;;;;;;;;4962288;28;100679;-74
2023/03/27 09:04:14;;;;;;;3.45;1.70;;;;;;;;;;4975715;28;98932;-74
2023/03/27 09:06:47;;;;;;;7.88;1.40;;;;;;;;;;4984014;28;98324;-75
2023/03/27 09:09:32;;;;;;;8.60;1.52;;;;;;;;;;4970146;28;98474;-75
2023/03/27 09:12:06;;;;;;;5.70;0.98;;;;;;;;;;4985916;28;99825;-74
2023/03/27 09:14:37;;;;;;;5.22;1.25;;;;;;;;;;4966319;28;98534;-75
2023/03/27 09:17:18;;;;;;;3.80;1.35;;;;;;;;;;4974666;28;98833;-74
2023/03/27 09:19:56;;;;;;;6.90;1.23;;;;;;;;;;4972094;28;98237;-74
2023/03/27 09:22:28;;;;;;;2.42;1.02;;;;;;;;;;4969676;28;99846;-74
2023/03/27 09:25:12;;;;;;;3.25;1.00;;;;;;;;;;4965824;28;101551;-74
2023/03/27 09:28:14;;;;;;;6.45;1.40;;;;;;;;;;4965350;28;98447;-74
2023/03/27 09:30:47;;;;;;;7.68;1.50;;;;;;;;;;4975517;28;101048;-75
2023/03/27 09:33:23;;;;;;;3.53;1.17;;;;;;;;;;4969385;28;98821;-74
2023/03/27 09:35:50;;;;;;;1.27;1.15;;;;;;;;;;4976775;28;100658;-74
2023/03/27 09:38:26;;;;;;;7.68;1.45;;;;;;;;;;4965233;28;101770;-74
2023/03/27 09:40:56;;;;;;;7.47;1.50;;;;;;;;;;4967609;28;98108;-74
2023/03/27 09:43:27;;;;;;;5.93;1.23;;;;;;;;;;4965177;28;100889;-75
2023/03/27 09:45:58;;;;;;;2.05;0.90;;;;;;;;;;4966106;28;101383;-74
2023/03/27 09:48:31;;;;;;;3.13;1.25;;;;;;;;;;4961296;28;98546;-74
2023/03/27 09:50:57;;;;;;;8.32;1.80;;;;;;;;;;4981156;28;100988;-74
2023/03/27 09:53:32;;;;;;;6.63;1.60;;;;;;;;;;4971627;28;98988;-74
2023/03/27 09:56:11;;;;;;;6.60;1.17;;;;;;;;;;4968959;28;98754;-74
2023/03/27 09:58:43;;;;;;;1.20;1.13;;;;;;;;;;4970571;28;99954;-74
2023/03/27 10:01:37;;;;;;;2.10;1.20;;;;;;;;;;4968893;28;98283;-74
2023/03/27 10:04:14;;;;;;;9.85;2.55;;;;;;;;;;4967955;28;101938;-74
2023/03/27 10:06:47;;;;;;;5.63;1.45;;;;;;;;;;4972582;28;101488;-74
2023/03/27 10:09:27;;;;;;;6.95;1.75;;;;;;;;;;4968646;28;98229;-74
2023/03/27 10:12:00;;;;;;;4.18;2.58;;;;;;;;;;4969307;28;99303;-74
2023/03/27 10:14:28;;;;;;;4.30;1.08;;;;;;;;;;4969304;28;99983;-74
2023/03/27 10:16:56;;;;;;;5.25;1.58;;;;;;;;;;4984082;28;98526;-74
2023/03/27 10:19:29;;;;;;;4.68;1.58;;;;;;;;;;4968936;28;101000;-74
2023/03/27 10:22:00;;;;;;;2.58;1.85;;;;;;;;;;4969047;28;98363;-74
2023/03/27 10:24:31;;;;;;;6.05;1.60;;;;;;;;;;4968517;28;100644;-74
2023/03/27 10:27:42;;;;;;;10.02;1.67;;;;;;;;;;4962611;28;98491;-74
2023/03/27 10:30:28;;;;;;;8.30;1.58;;;;;;;;;;4960939;28;98149;-75
2023/03/27 10:33:08;;;;;;;6.50;1.38;;;;;;;;;;4966465;28;99843;-75
2023/03/27 10:35:47;;;;;;;5.32;1.55;;;;;;;;;;4968934;28;100354;-74
2023/03/27 10:38:34;;;;;;;6.00;1.52;;;;;;;;;;4969027;28;98136;-74
2023/03/27 10:41:21;;;;;;;5.50;1.67;;;;;;;;;;4972656;28;98957;-74
2023/03/27 10:43:56;;;;;;;3.60;1.10;;;;;;;;;;4968471;28;98391;-74
2023/03/27 10:46:24;;;;;;;7.10;1.40;;;;;;;;;;4967996;28;101008;-74
2023/03/27 10:48:55;;;;;;;4.45;1.25;;;;;;;;;;4968386;28;101107;-74
2023/03/27 10:51:27;;;;;;;3.22;1.35;;;;;;;;;;4964906;28;98583;-74
2023/03/27 10:54:09;;;;;;;6.05;1.30;;;;;;;;;;4968436;28;100391;-78
2023/03/27 10:56:51;;;;;;;4.75;1.50;;;;;;;;;;4969016;28;99867;-76
2023/03/27 10:59:18;;;;;;;;;;;;;;;;;;4969517;28;98446;-78
2023/03/27 11:01:55;;;;;;;4.05;1.27;;;;;;;;;;4967611;28;131448;-78
2023/03/27 11:04:29;;;;;;;6.72;1.10;;;;;;;;;;4998391;28;100092;-78
2023/03/27 11:07:04;;;;;;;3.65;1.48;;;;;;;;;;4963805;28;99949;-77
2023/03/27 11:09:33;;;;;;;4.57;0.95;;;;;;;;;;4966184;28;100869;-75
2023/03/27 11:12:09;;;;;;;1.75;1.08;;;;;;;;;;4968121;28;98264;-77
2023/03/27 11:14:50;;;;;;;3.65;1.38;;;;;;;;;;4966172;28;100769;-77
2023/03/27 11:17:24;;;;;;;1.60;1.15;;;;;;;;;;4968213;28;101733;-77
2023/03/27 11:20:20;;;;;;;2.25;1.30;;;;;;;;;;4961410;28;98780;-79
2023/03/27 11:23:04;;;;;;;10.85;2.13;;;;;;;;;;4963988;28;98288;-80
2023/03/27 11:25:45;;;;;;;3.65;1.42;;;;;;;;;;4976732;28;101317;-75
2023/03/27 11:28:25;;;;;;;5.10;1.30;;;;;;;;;;4974179;28;98323;-76
2023/03/27 11:30:57;;;;;;;2.50;1.38;;;;;;;;;;4997651;28;101509;-75
2023/03/27 11:33:43;;;;;;;1.83;1.00;;;;;;;;;;4967763;28;98174;-74
2023/03/27 11:36:15;;;;;;;7.60;1.75;;;;;;;;;;4967571;28;101170;-74
2023/03/27 11:38:50;;;;;;;2.95;1.08;;;;;;;;;;4967796;28;100904;-74
2023/03/27 11:41:17;;;;;;;2.13;0.90;;;;;;;;;;4976446;28;98326;-74
2023/03/27 11:43:43;;;;;;;4.28;1.38;;;;;;;;;;4969169;28;98706;-74
2023/03/27 11:46:50;;;;;;;2.25;1.23;;;;;;;;;;4963938;28;99858;-74
2023/03/27 11:49:19;;;;;;;1.27;1.00;;;;;;;;;;4949891;28;98203;-74
2023/03/27 11:51:49;;;;;;;2.05;0.98;;;;;;;;;;4967489;28;101730;-74
2023/03/27 11:54:34;;;;;;;2.28;1.15;;;;;;;;;;4967853;28;98296;-74
2023/03/27 11:57:09;;;;;;;3.00;1.48;;;;;;;;;;4964872;28;99838;-74
2023/03/27 11:59:56;;;;;;;3.08;1.23;;;;;;;;;;4966780;28;101256;-74
2023/03/27 12:02:26;;;;;;;8.00;1.52;;;;;;;;;;4966884;28;98263;-75
2023/03/27 12:05:19;;;;;;;5.93;2.33;;;;;;;;;;4967719;28;100598;-74
2023/03/27 12:08:10;;;;;;;6.53;1.38;;;;;;;;;;4962360;28;100965;-74
2023/03/27 12:10:42;;;;;;;8.07;1.67;;;;;;;;;;4999893;28;98452;-74
2023/03/27 12:13:30;;;;;;;2.55;1.10;;;;;;;;;;4960726;28;99296;-75
2023/03/27 12:16:22;;;;;;;5.15;1.58;;;;;;;;;;4964043;28;98876;-74
2023/03/27 12:19:18;;;;;;;3.10;1.40;;;;;;;;;;4967390;28;98878;-74
2023/03/27 12:22:36;;;;;;;2.87;0.87;;;;;;;;;;4967091;28;101739;-75
2023/03/27 12:25:24;;;;;;;1.35;0.80;;;;;;;;;;4953195;28;98650;-74
2023/03/27 12:28:31;;;;;;;1.27;0.80;;;;;;;;;;4971679;28;98147;-75
2023/03/27 12:31:22;;;;;;;8.27;1.70;;;;;;;;;;4966328;28;101538;-73
2023/03/27 12:34:01;;;;;;;3.80;1.13;;;;;;;;;;4981203;28;98346;-74
2023/03/27 12:36:30;;;;;;;3.95;1.13;;;;;;;;;;4979930;28;100967;-74
2023/03/27 12:38:58;;;;;;;4.97;1.33;;;;;;;;;;4980420;28;100860;-74
2023/03/27 12:41:30;;;;;;;2.03;1.25;;;;;;;;;;4968003;28;99428;-74
2023/03/27 12:44:05;;;;;;;4.65;1.30;;;;;;;;;;5003013;28;98962;-74
2023/03/27 12:46:37;;;;;;;0.77;0.70;;;;;;;;;;4976748;28;99800;-74
2023/03/27 12:49:04;;;;;;;4.15;1.10;;;;;;;;;;4971003;28;101175;-74
2023/03/27 12:51:49;;;;;;;1.63;1.08;;;;;;;;;;4975161;28;98935;-74
2023/03/27 12:54:37;;;;;;;2.20;1.60;;;;;;;;;;4966560;28;98069;-76
2023/03/27 12:57:40;;;;;;;2.88;1.17;;;;;;;;;;4978487;28;99921;-74
2023/03/27 13:00:20;;;;;;;5.85;1.80;;;;;;;;;;4949511;28;100109;-74
2023/03/27 13:02:56;;;;;;;3.45;1.00;;;;;;;;;;4960984;28;98833;-73
2023/03/27 13:05:41;;;;;;;6.30;1.20;;;;;;;;;;4954444;28;103400;-74
2023/03/27 13:08:33;;;;;;;2.50;1.27;;;;;;;;;;5000967;28;98318;-74
2023/03/27 13:11:11;;;;;;;11.63;1.60;;;;;;;;;;4944886;28;100922;-74
2023/03/27 13:13:46;;;;;;;3.78;1.23;;;;;;;;;;4958139;28;101884;-74
2023/03/27 13:16:29;;;;;;;3.33;1.45;;;;;;;;;;4975398;28;98309;-74
2023/03/27 13:19:16;;;;;;;3.33;1.50;;;;;;;;;;4957457;28;100939;-73
2023/03/27 13:22:22;;;;;;;3.58;1.42;;;;;;;;;;4957392;28;98108;-73
2023/03/27 13:24:57;;;;;;;1.40;1.25;;;;;;;;;;4956078;28;98818;-74
2023/03/27 13:27:27;;;;;;;4.75;1.13;;;;;;;;;;4973929;28;100740;-74
2023/03/27 13:29:55;;;;;;;4.78;1.20;;;;;;;;;;4969199;28;102018;-73
2023/03/27 13:32:38;;;;;;;4.40;1.30;;;;;;;;;;4994664;28;99368;-73
2023/03/27 13:35:20;;;;;;;8.10;1.55;;;;;;;;;;4961361;28;99163;-73
2023/03/27 13:37:47;;;;;;;;;;;;;;;;;;4960749;28;98825;-74
2023/03/27 13:40:19;;;;;;;2.65;1.25;;;;;;;;;;4969909;28;99124;-74
2023/03/27 13:42:49;;;;;;;2.92;1.20;;;;;;;;;;4967633;28;100192;-74
2023/03/27 13:45:30;;;;;;;3.70;1.20;;;;;;;;;;4970145;28;98411;-73
2023/03/27 13:48:49;;;;;;;4.63;1.08;;;;;;;;;;4960027;28;99590;-73
2023/03/27 13:51:25;;;;;;;4.95;1.60;;;;;;;;;;4956639;28;99887;-74
2023/03/27 13:53:58;;;;;;;5.13;1.33;;;;;;;;;;4970931;28;100401;-73
2023/03/27 13:56:52;;;;;;;11.70;1.48;;;;;;;;;;4976692;28;101247;-73
2023/03/27 13:59:42;;;;;;;3.60;1.17;;;;;;;;;;4962687;28;98325;-73
2023/03/27 14:02:35;;;;;;;3.83;1.23;;;;;;;;;;4980138;28;100277;-74
2023/03/27 14:05:16;;;;;;;8.48;1.55;;;;;;;;;;4964093;28;99032;-74
2023/03/27 14:07:47;;;;;;;7.47;1.77;;;;;;;;;;4949659;28;99702;-74
2023/03/27 14:10:15;;;;;;;;;;;;;;;;;;4951123;28;100623;-74
2023/03/27 14:13:08;;;;;;;4.85;1.50;;;;;;;;;;4969222;28;99294;-74
2023/03/27 14:15:45;;;;;;;1.67;0.95;;;;;;;;;;4982653;28;102951;-73
2023/03/27 14:18:56;;;;;;;4.20;2.20;;;;;;;;;;4956551;28;98668;-73
2023/03/27 14:21:26;;;;;;;4.85;1.35;;;;;;;;;;4950866;28;98379;-74
2023/03/27 14:24:16;;;;;;;5.60;1.30;;;;;;;;;;4983054;28;101568;-75
2023/03/27 14:26:47;;;;;;;5.00;1.25;;;;;;;;;;4968580;28;100543;-75
2023/03/27 14:29:16;;;;;;;6.10;1.80;;;;;;;;;;4972185;28;98428;-74
2023/03/27 14:31:49;;;;;;;4.25;1.40;;;;;;;;;;4959198;28;101573;-74
2023/03/27 14:34:29;;;;;;;1.08;0.95;;;;;;;;;;4963517;28;101242;-74
2023/03/27 14:37:29;;;;;;;3.13;1.20;;;;;;;;;;4978397;28;98353;-74
2023/03/27 14:40:25;;;;;;;2.17;1.00;;;;;;;;;;4966179;28;101510;-74
2023/03/27 14:42:55;;;;;;;4.15;1.38;;;;;;;;;;4965447;28;98265;-74
2023/03/27 14:45:26;;;;;;;3.30;1.20;;;;;;;;;;4962554;28;101747;-74
2023/03/27 14:47:55;;;;;;;4.28;1.17;;;;;;;;;;4983227;28;98943;-74
2023/03/27 14:50:25;;;;;;;5.55;1.40;;;;;;;;;;4967577;28;98234;-74
2023/03/27 14:52:53;;;;;;;4.22;1.17;;;;;;;;;;4969384;28;100812;-74
2023/03/27 14:55:33;;;;;;;6.05;1.83;;;;;;;;;;4973782;28;101249;-74
2023/03/27 14:58:19;;;;;;;4.88;1.50;;;;;;;;;;4956575;28;98508;-74
2023/03/27 15:00:51;;;;;;;7.50;1.33;;;;;;;;;;4977152;28;101153;-74
2023/03/27 15:03:22;;;;;;;5.30;1.48;;;;;;;;;;4969520;28;98364;-74
2023/03/27 15:05:56;;;;;;;8.27;1.73;;;;;;;;;;4969904;28;101300;-74
2023/03/27 15:08:32;;;;;;;5.30;1.75;;;;;;;;;;4977560;28;99858;-74
2023/03/27 15:11:17;;;;;;;6.00;1.17;;;;;;;;;;4977766;28;99886;-74
2023/03/27 15:13:51;;;;;;;13.88;2.75;;;;;;;;;;4967125;28;100898;-74
2023/03/27 15:16:26;;;;;;;6.07;1.33;;;;;;;;;;4970995;28;98931;-75
2023/03/27 15:18:55;;;;;;;6.80;1.55;;;;;;;;;;4971862;28;98195;-74
2023/03/27 15:21:33;;;;;;;4.57;1.58;;;;;;;;;;4970363;28;101284;-74
2023/03/27 15:24:09;;;;;;;3.67;1.40;;;;;;;;;;4965638;28;98764;-74
2023/03/27 15:26:37;;;;;;;4.82;1.40;;;;;;;;;;4987337;28;98559;-75
2023/03/27 15:29:26;;;;;;;3.38;0.88;;;;;;;;;;4968403;28;99096;-74